Time;durP1;ratioP1;P1;durP2;ratioP2;P2;SDS_P1;SDS_P2;PMS_P1;PMS_P2;Temp;Humidity;BMP_temperature;BMP_pressure;BME280_temperature;BME280_humidity;BME280_pressure;Samples;Min_cycle;Max_cycle;Signal;HPM_P1;HPM_P2
2021/07/12 00:01:10;;;;;;;;;;;10.90;99.90;;;;;;5093144;28;19908;-69
2021/07/12 00:03:36;;;;;;;;;;;10.90;99.90;;;;;;5092226;28;19965;-69
2021/07/12 00:06:03;;;;;;;;;;;10.90;99.90;;;;;;5092777;28;20011;-69
2021/07/12 00:08:30;;;;;;;;;;;10.90;99.90;;;;;;5092811;28;19916;-69
2021/07/12 00:10:56;;;;;;;;;;;11.00;99.90;;;;;;5092739;28;19919;-69
2021/07/12 00:13:23;;;;;;;;;;;11.10;99.90;;;;;;5092913;28;19919;-68
2021/07/12 00:15:50;;;;;;;;;;;11.20;99.90;;;;;;5092431;28;20122;-69
2021/07/12 00:18:16;;;;;;;;;;;11.20;99.90;;;;;;5092615;28;19919;-69
2021/07/12 00:20:43;;;;;;;;;;;11.30;99.90;;;;;;5092810;28;19908;-69
2021/07/12 00:23:10;;;;;;;;;;;11.50;99.90;;;;;;5092538;28;19910;-69
2021/07/12 00:25:36;;;;;;;;;;;11.50;99.90;;;;;;5092444;28;20392;-69
2021/07/12 00:28:04;;;;;;;;;;;11.60;99.90;;;;;;5092400;28;20282;-69
2021/07/12 00:30:30;;;;;;;;;;;11.80;99.90;;;;;;5092297;28;19908;-69
2021/07/12 00:32:57;;;;;;;;;;;11.90;99.90;;;;;;5092334;28;19912;-69
2021/07/12 00:35:25;;;;;;;;;;;12.00;99.90;;;;;;5092464;28;19954;-69
2021/07/12 00:37:53;;;;;;;;;;;11.90;99.90;;;;;;5092066;28;19934;-69
2021/07/12 00:40:21;;;;;;;;;;;12.00;99.90;;;;;;5092586;28;19908;-69
2021/07/12 00:42:48;;;;;;;;;;;12.10;99.90;;;;;;5092279;28;19920;-69
2021/07/12 00:45:16;;;;;;;;;;;12.20;99.90;;;;;;5092300;28;19919;-69
2021/07/12 00:47:43;;;;;;;;;;;12.30;99.90;;;;;;5092027;28;19926;-69
2021/07/12 00:50:10;;;;;;;;;;;12.40;99.90;;;;;;5092445;28;20281;-69
2021/07/12 00:52:37;;;;;;;;;;;12.60;99.90;;;;;;5092039;28;19908;-68
2021/07/12 00:55:19;;;;;;;;;;;12.60;99.90;;;;;;5092181;28;20323;-69
2021/07/12 00:57:46;;;;;;;;;;;12.60;99.90;;;;;;5092001;28;20423;-69
2021/07/12 01:00:13;;;;;;;;;;;12.70;99.90;;;;;;5092208;28;19908;-68
2021/07/12 01:02:40;;;;;;;;;;;12.70;99.90;;;;;;5092263;28;19961;-68
2021/07/12 01:05:08;;;;;;;;;;;12.80;99.90;;;;;;5092120;28;19908;-69
2021/07/12 01:07:35;;;;;;;;;;;12.80;99.90;;;;;;5091614;28;19982;-69
2021/07/12 01:10:01;;;;;;;;;;;12.80;99.90;;;;;;5092062;28;19908;-69
2021/07/12 01:12:33;;;;;;;;;;;12.70;99.90;;;;;;5092124;28;19915;-69
2021/07/12 01:15:09;;;;;;;;;;;12.60;99.90;;;;;;5092080;28;19954;-69
2021/07/12 01:17:38;;;;;;;;;;;12.60;99.90;;;;;;5091794;28;19908;-68
2021/07/12 01:20:34;;;;;;;;;;;12.70;99.90;;;;;;5091929;28;19953;-68
2021/07/12 01:23:18;;;;;;;;;;;12.80;99.90;;;;;;5091956;28;20336;-68
2021/07/12 01:26:03;;;;;;;;;;;13.00;99.90;;;;;;5094854;28;19915;-68
2021/07/12 01:28:47;;;;;;;;;;;13.20;99.90;;;;;;5095793;28;19916;-69
2021/07/12 01:31:29;;;;;;;;;;;13.30;99.90;;;;;;5094421;28;19908;-68
2021/07/12 01:34:07;;;;;;;;;;;13.20;99.90;;;;;;5095757;28;19912;-67
2021/07/12 01:36:37;;;;;;;;;;;13.30;99.90;;;;;;5095387;28;19933;-66
2021/07/12 01:39:08;;;;;;;;;;;13.30;99.90;;;;;;5095608;28;19915;-67
2021/07/12 01:41:55;;;;;;;;;;;13.40;99.90;;;;;;5095140;28;19998;-67
2021/07/12 01:44:37;;;;;;;;;;;13.40;99.90;;;;;;5095104;28;19920;-67
2021/07/12 01:47:06;;;;;;;;;;;13.50;99.90;;;;;;5095362;28;20259;-67
2021/07/12 01:49:35;;;;;;;;;;;13.50;99.90;;;;;;5095382;28;19908;-68
2021/07/12 01:52:16;;;;;;;;;;;13.50;99.90;;;;;;5095211;28;20331;-68
2021/07/12 01:54:48;;;;;;;;;;;13.40;99.90;;;;;;5095295;28;19931;-68
2021/07/12 01:57:21;;;;;;;;;;;13.40;99.90;;;;;;5095192;28;19920;-69
2021/07/12 01:59:58;;;;;;;;;;;13.50;99.90;;;;;;5094832;28;19908;-66
2021/07/12 02:02:27;;;;;;;;;;;13.60;99.90;;;;;;5095076;28;19915;-67
2021/07/12 02:04:55;;;;;;;;;;;13.70;99.90;;;;;;5095040;28;19915;-67
2021/07/12 02:07:23;;;;;;;;;;;13.60;99.90;;;;;;5094776;28;19912;-67
2021/07/12 02:09:50;;;;;;;;;;;13.80;99.90;;;;;;5094824;28;20377;-68
2021/07/12 02:12:17;;;;;;;;;;;13.80;99.90;;;;;;5094941;28;19908;-67
2021/07/12 02:14:45;;;;;;;;;;;13.80;99.90;;;;;;5094855;28;19984;-68
2021/07/12 02:17:12;;;;;;;;;;;13.90;99.90;;;;;;5094873;28;19912;-68
2021/07/12 02:19:38;;;;;;;;;;;13.80;99.90;;;;;;5094774;28;19912;-68
2021/07/12 02:22:05;;;;;;;;;;;13.80;99.90;;;;;;5094652;28;20244;-68
2021/07/12 02:24:33;;;;;;;;;;;13.80;99.90;;;;;;5094646;28;20350;-68
2021/07/12 02:27:00;;;;;;;;;;;13.80;99.90;;;;;;5094372;28;19945;-68
2021/07/12 02:29:27;;;;;;;;;;;13.80;99.90;;;;;;5094562;28;19916;-68
2021/07/12 02:31:54;;;;;;;;;;;13.80;99.90;;;;;;5094253;28;20390;-69
2021/07/12 02:34:22;;;;;;;;;;;13.70;99.90;;;;;;5094495;28;19929;-68
2021/07/12 02:36:50;;;;;;;;;;;13.60;99.90;;;;;;5093260;28;19908;-68
2021/07/12 02:39:18;;;;;;;;;;;13.60;99.90;;;;;;5094428;28;19908;-68
2021/07/12 02:41:46;;;;;;;;;;;13.60;99.90;;;;;;5094144;28;19908;-68
2021/07/12 02:44:13;;;;;;;;;;;13.60;99.90;;;;;;5094067;28;20279;-68
2021/07/12 02:46:40;;;;;;;;;;;13.60;99.90;;;;;;5094441;28;20493;-67
2021/07/12 02:49:08;;;;;;;;;;;13.60;99.90;;;;;;5094299;28;20363;-67
2021/07/12 02:51:36;;;;;;;;;;;13.70;99.90;;;;;;5094035;28;19912;-68
2021/07/12 02:54:05;;;;;;;;;;;13.60;99.90;;;;;;5094187;28;20002;-68
2021/07/12 02:56:32;;;;;;;;;;;13.70;99.90;;;;;;5094161;28;19990;-68
2021/07/12 02:58:59;;;;;;;;;;;13.90;99.90;;;;;;5094202;28;19908;-68
2021/07/12 03:01:25;;;;;;;;;;;14.00;99.90;;;;;;5094110;28;19916;-68
2021/07/12 03:03:54;;;;;;;;;;;14.00;99.90;;;;;;5093861;28;19908;-69
2021/07/12 03:06:25;;;;;;;;;;;14.30;99.90;;;;;;5093925;28;19962;-67
2021/07/12 03:09:03;;;;;;;;;;;14.40;99.90;;;;;;5093759;28;19916;-68
2021/07/12 03:11:56;;;;;;;;;;;14.40;99.90;;;;;;5093665;28;19908;-68
2021/07/12 03:14:34;;;;;;;;;;;14.40;99.90;;;;;;5091518;28;19952;-68
2021/07/12 03:17:01;;;;;;;;;;;14.40;99.90;;;;;;5093673;28;19959;-68
2021/07/12 03:19:32;;;;;;;;;;;14.40;99.90;;;;;;5093573;28;19915;-68
2021/07/12 03:22:00;;;;;;;;;;;14.60;99.90;;;;;;5093350;28;19908;-68
2021/07/12 03:24:32;;;;;;;;;;;14.70;99.90;;;;;;5093790;28;20282;-68
2021/07/12 03:26:59;;;;;;;;;;;14.70;99.90;;;;;;5093544;28;19908;-68
2021/07/12 03:29:30;;;;;;;;;;;14.80;99.90;;;;;;5093546;28;19912;-68
2021/07/12 03:32:02;;;;;;;;;;;14.80;99.90;;;;;;5093441;28;19996;-66
2021/07/12 03:34:29;;;;;;;;;;;15.00;99.90;;;;;;5093366;28;19908;-67
2021/07/12 03:36:57;;;;;;;;;;;15.00;99.90;;;;;;5091956;28;19919;-68
2021/07/12 03:39:24;;;;;;;;;;;15.00;99.90;;;;;;5093263;28;20369;-68
2021/07/12 03:41:51;;;;;;;;;;;15.10;99.90;;;;;;5093269;28;20010;-67
2021/07/12 03:44:18;;;;;;;;;;;15.20;99.90;;;;;;5092987;28;19920;-68
2021/07/12 03:46:45;;;;;;;;;;;15.30;99.90;;;;;;5092723;28;20084;-67
2021/07/12 03:49:16;;;;;;;;;;;15.30;99.90;;;;;;5093091;28;19947;-68
2021/07/12 03:51:46;;;;;;;;;;;15.40;99.90;;;;;;5092812;28;19962;-67
2021/07/12 03:54:13;;;;;;;;;;;15.40;99.90;;;;;;5093065;28;20384;-67
2021/07/12 03:56:40;;;;;;;;;;;15.40;99.90;;;;;;5092781;28;19908;-68
2021/07/12 03:59:07;;;;;;;;;;;15.30;99.90;;;;;;5092899;28;20015;-68
2021/07/12 04:01:34;;;;;;;;;;;15.40;99.90;;;;;;5092824;28;19908;-67
2021/07/12 04:04:00;;;;;;;;;;;15.40;99.90;;;;;;5092900;28;19908;-67
2021/07/12 04:06:29;;;;;;;;;;;15.50;99.90;;;;;;5092882;28;19995;-67
2021/07/12 04:08:57;;;;;;;;;;;15.60;99.90;;;;;;5092736;28;19961;-67
2021/07/12 04:11:30;;;;;;;;;;;15.60;99.90;;;;;;5091555;28;19983;-67
2021/07/12 04:13:57;;;;;;;;;;;15.50;99.90;;;;;;5092890;28;19982;-67
2021/07/12 04:16:24;;;;;;;;;;;15.50;99.90;;;;;;5092744;28;19908;-67
2021/07/12 04:18:51;;;;;;;;;;;15.50;99.90;;;;;;5092708;28;19951;-67
2021/07/12 04:21:17;;;;;;;;;;;15.50;99.90;;;;;;5092741;28;20255;-67
2021/07/12 04:23:44;;;;;;;;;;;15.70;99.90;;;;;;5092418;28;19908;-68
2021/07/12 04:26:11;;;;;;;;;;;15.70;99.90;;;;;;5091265;28;19920;-68
2021/07/12 04:28:37;;;;;;;;;;;15.60;99.90;;;;;;5092533;28;19920;-67
2021/07/12 04:31:04;;;;;;;;;;;15.70;99.90;;;;;;5092730;28;19942;-68
2021/07/12 04:33:31;;;;;;;;;;;15.60;99.90;;;;;;5092630;28;19942;-68
2021/07/12 04:35:57;;;;;;;;;;;15.60;99.90;;;;;;5092292;28;19909;-68
2021/07/12 04:38:24;;;;;;;;;;;15.60;99.90;;;;;;5092396;28;19912;-68
2021/07/12 04:40:51;;;;;;;;;;;15.60;99.90;;;;;;5092478;28;19908;-68
2021/07/12 04:43:17;;;;;;;;;;;15.60;99.90;;;;;;5092328;28;19920;-68
2021/07/12 04:45:44;;;;;;;;;;;15.50;99.90;;;;;;5092191;28;19915;-68
2021/07/12 04:48:11;;;;;;;;;;;15.40;99.90;;;;;;5092603;28;19986;-69
2021/07/12 04:50:37;;;;;;;;;;;15.30;99.90;;;;;;5092446;28;19916;-68
2021/07/12 04:53:04;;;;;;;;;;;15.30;99.90;;;;;;5092387;28;20007;-68
2021/07/12 04:55:30;;;;;;;;;;;15.20;99.90;;;;;;5092199;28;19915;-67
2021/07/12 04:58:00;;;;;;;;;;;15.10;99.90;;;;;;5092323;28;19939;-67
2021/07/12 05:00:27;;;;;;;;;;;15.10;99.90;;;;;;5095137;28;19922;-68
2021/07/12 05:02:54;;;;;;;;;;;15.10;99.90;;;;;;5096426;28;20388;-67
2021/07/12 05:05:20;;;;;;;;;;;15.20;99.90;;;;;;5095926;28;19999;-68
2021/07/12 05:07:47;;;;;;;;;;;15.20;99.90;;;;;;5095990;28;20350;-68
2021/07/12 05:10:14;;;;;;;;;;;15.20;99.90;;;;;;5096123;28;19915;-68
2021/07/12 05:12:41;;;;;;;;;;;15.30;99.90;;;;;;5096004;28;19908;-67
2021/07/12 05:15:08;;;;;;;;;;;15.20;99.90;;;;;;5096293;28;19965;-68
2021/07/12 05:17:35;;;;;;;;;;;15.20;99.90;;;;;;5095943;28;19908;-68
2021/07/12 05:20:03;;;;;;;;;;;15.10;99.90;;;;;;5095885;28;19908;-68
2021/07/12 05:22:30;;;;;;;;;;;15.10;99.90;;;;;;5096054;28;20362;-67
2021/07/12 05:24:56;;;;;;;;;;;15.00;99.90;;;;;;5095587;28;19955;-69
2021/07/12 05:27:23;;;;;;;;;;;15.00;99.90;;;;;;5095782;28;20261;-69
2021/07/12 05:29:49;;;;;;;;;;;14.90;99.90;;;;;;5095684;28;19919;-69
2021/07/12 05:32:16;;;;;;;;;;;14.90;99.90;;;;;;5095795;28;19985;-68
2021/07/12 05:34:43;;;;;;;;;;;14.90;99.90;;;;;;5095569;28;20366;-68
2021/07/12 05:37:10;;;;;;;;;;;14.90;99.90;;;;;;5095774;28;20324;-68
2021/07/12 05:39:36;;;;;;;;;;;14.80;99.90;;;;;;5095771;28;19919;-68
2021/07/12 05:42:03;;;;;;;;;;;14.80;99.90;;;;;;5095640;28;20006;-68
2021/07/12 05:44:31;;;;;;;;;;;14.80;99.90;;;;;;5095644;28;19923;-68
2021/07/12 05:46:58;;;;;;;;;;;14.80;99.90;;;;;;5095632;28;20308;-68
2021/07/12 05:49:24;;;;;;;;;;;14.70;99.90;;;;;;5095424;28;20070;-68
2021/07/12 05:51:51;;;;;;;;;;;14.70;99.90;;;;;;5095494;28;20378;-68
2021/07/12 05:54:17;;;;;;;;;;;14.70;99.90;;;;;;5095569;28;19939;-68
2021/07/12 05:56:44;;;;;;;;;;;14.70;99.90;;;;;;5096081;28;20278;-67
2021/07/12 05:59:11;;;;;;;;;;;14.60;99.90;;;;;;5095744;28;19908;-69
2021/07/12 06:01:37;;;;;;;;;;;14.60;99.90;;;;;;5095705;28;19908;-68
2021/07/12 06:04:04;;;;;;;;;;;14.60;99.90;;;;;;5095526;28;19914;-68
2021/07/12 06:06:31;;;;;;;;;;;14.60;99.90;;;;;;5097038;28;19914;-68
2021/07/12 06:08:57;;;;;;;;;;;14.60;99.90;;;;;;5098216;28;20007;-69
2021/07/12 06:11:24;;;;;;;;;;;14.60;99.90;;;;;;5101059;28;19953;-68
2021/07/12 06:13:51;;;;;;;;;;;14.50;99.90;;;;;;5095943;28;19914;-68
2021/07/12 06:16:18;;;;;;;;;;;14.50;99.90;;;;;;5095867;28;19909;-68
2021/07/12 06:18:44;;;;;;;;;;;14.40;99.90;;;;;;5095150;28;19943;-69
2021/07/12 06:21:11;;;;;;;;;;;14.40;99.90;;;;;;5094898;28;19915;-68
2021/07/12 06:23:37;;;;;;;;;;;14.40;99.90;;;;;;5094894;28;19908;-69
2021/07/12 06:26:04;;;;;;;;;;;14.30;99.90;;;;;;5094750;28;19908;-67
2021/07/12 06:28:31;;;;;;;;;;;14.30;99.90;;;;;;5094588;28;20428;-68
2021/07/12 06:30:58;;;;;;;;;;;14.30;99.90;;;;;;5094694;28;19960;-69
2021/07/12 06:33:29;;;;;;;;;;;14.20;99.90;;;;;;5094780;28;19934;-68
2021/07/12 06:35:56;;;;;;;;;;;14.30;99.90;;;;;;5094433;28;19909;-68
2021/07/12 06:38:23;;;;;;;;;;;14.20;99.90;;;;;;5094755;28;19930;-69
2021/07/12 06:40:49;;;;;;;;;;;14.20;99.90;;;;;;5094544;28;19915;-67
2021/07/12 06:43:16;;;;;;;;;;;14.20;99.90;;;;;;5094266;28;19924;-69
2021/07/12 06:45:43;;;;;;;;;;;14.10;99.90;;;;;;5094286;28;19908;-67
2021/07/12 06:48:09;;;;;;;;;;;14.10;99.90;;;;;;5094429;28;19916;-68
2021/07/12 06:50:36;;;;;;;;;;;14.10;99.90;;;;;;5094250;28;20328;-69
2021/07/12 06:53:03;;;;;;;;;;;14.00;99.90;;;;;;5094144;28;19914;-68
2021/07/12 06:55:29;;;;;;;;;;;14.00;99.90;;;;;;5094252;28;19909;-68
2021/07/12 06:58:03;;;;;;;;;;;14.00;99.90;;;;;;5094313;28;20350;-67
2021/07/12 07:00:33;;;;;;;;;;;14.00;99.90;;;;;;5094246;28;19908;-67
2021/07/12 07:03:00;;;;;;;;;;;13.90;99.90;;;;;;5094340;28;19936;-69
2021/07/12 07:05:28;;;;;;;;;;;13.90;99.90;;;;;;5094027;28;20346;-68
2021/07/12 07:07:55;;;;;;;;;;;13.90;99.90;;;;;;5093737;28;19916;-68
2021/07/12 07:10:21;;;;;;;;;;;13.90;99.90;;;;;;5094167;28;19931;-68
2021/07/12 07:12:48;;;;;;;;;;;13.90;99.90;;;;;;5093850;28;19908;-68
2021/07/12 07:15:15;;;;;;;;;;;13.80;99.90;;;;;;5094060;28;19909;-67
2021/07/12 07:17:41;;;;;;;;;;;13.80;99.90;;;;;;5093525;28;20288;-67
2021/07/12 07:20:08;;;;;;;;;;;13.80;99.90;;;;;;5093702;28;19969;-68
2021/07/12 07:22:35;;;;;;;;;;;13.70;99.90;;;;;;5093048;28;20286;-68
2021/07/12 07:25:02;;;;;;;;;;;13.70;99.90;;;;;;5093721;28;19908;-67
2021/07/12 07:27:28;;;;;;;;;;;13.70;99.90;;;;;;5093466;28;20274;-69
2021/07/12 07:29:55;;;;;;;;;;;13.60;99.90;;;;;;5093608;28;19919;-68
2021/07/12 07:32:22;;;;;;;;;;;13.60;99.90;;;;;;5097443;28;19927;-68
2021/07/12 07:34:49;;;;;;;;;;;13.60;99.90;;;;;;5101830;28;19978;-69
2021/07/12 07:37:15;;;;;;;;;;;13.60;99.90;;;;;;5108605;28;19907;-68
2021/07/12 07:39:42;;;;;;;;;;;13.60;99.90;;;;;;5112800;28;19914;-68
2021/07/12 07:42:09;;;;;;;;;;;13.60;99.90;;;;;;5111359;28;20010;-68
2021/07/12 07:44:36;;;;;;;;;;;13.40;99.90;;;;;;5111915;28;20014;-68
2021/07/12 07:47:03;;;;;;;;;;;13.40;99.90;;;;;;5093334;28;19914;-67
2021/07/12 07:49:31;;;;;;;;;;;13.30;99.90;;;;;;5111012;28;19934;-68
2021/07/12 07:51:58;;;;;;;;;;;13.30;99.90;;;;;;5111303;28;19954;-69
2021/07/12 07:54:25;;;;;;;;;;;13.20;99.90;;;;;;5110932;28;20365;-68
2021/07/12 07:56:52;;;;;;;;;;;13.10;99.90;;;;;;5111366;28;19908;-68
2021/07/12 07:59:18;;;;;;;;;;;13.10;99.90;;;;;;5111471;28;20280;-68
2021/07/12 08:01:45;;;;;;;;;;;13.10;99.90;;;;;;5111118;28;20370;-68
2021/07/12 08:04:12;;;;;;;;;;;13.10;99.90;;;;;;5111185;28;20381;-68
2021/07/12 08:06:39;;;;;;;;;;;13.10;99.90;;;;;;5110912;28;19934;-68
2021/07/12 08:09:05;;;;;;;;;;;13.00;99.90;;;;;;5111013;28;19955;-67
2021/07/12 08:11:32;;;;;;;;;;;13.10;99.90;;;;;;5110892;28;19912;-68
2021/07/12 08:13:59;;;;;;;;;;;13.10;99.90;;;;;;5111209;28;20402;-68
2021/07/12 08:16:26;;;;;;;;;;;13.20;99.90;;;;;;5111024;28;19918;-68
2021/07/12 08:18:52;;;;;;;;;;;13.20;99.90;;;;;;5110924;28;19908;-68
2021/07/12 08:21:20;;;;;;;;;;;13.20;99.90;;;;;;5110663;28;19911;-67
2021/07/12 08:23:46;;;;;;;;;;;13.20;99.90;;;;;;5074581;28;19920;-69
2021/07/12 08:26:13;;;;;;;;;;;13.20;99.90;;;;;;5070610;28;19951;-68
2021/07/12 08:28:41;;;;;;;;;;;13.30;99.90;;;;;;5070457;28;19917;-68
2021/07/12 08:31:10;;;;;;;;;;;13.30;99.90;;;;;;5070368;28;19916;-68
2021/07/12 08:33:37;;;;;;;;;;;13.20;99.90;;;;;;5101184;28;19977;-68
2021/07/12 08:36:03;;;;;;;;;;;13.30;99.90;;;;;;5069524;28;20287;-69
2021/07/12 08:38:30;;;;;;;;;;;13.30;99.90;;;;;;5070274;28;20413;-68
2021/07/12 08:40:57;;;;;;;;;;;13.30;99.90;;;;;;5070202;28;20346;-67
2021/07/12 08:43:24;;;;;;;;;;;13.30;99.90;;;;;;5069989;28;20021;-68
2021/07/12 08:45:51;;;;;;;;;;;13.40;99.90;;;;;;5070017;28;19979;-68
2021/07/12 08:48:18;;;;;;;;;;;13.30;99.90;;;;;;5069156;28;20307;-68
2021/07/12 08:50:47;;;;;;;;;;;13.30;99.90;;;;;;5070300;28;20054;-68
2021/07/12 08:53:15;;;;;;;;;;;13.30;99.90;;;;;;5070248;28;20365;-67
2021/07/12 08:55:45;;;;;;;;;;;13.30;99.90;;;;;;5069832;28;19912;-68
2021/07/12 08:58:18;;;;;;;;;;;13.40;99.90;;;;;;5070073;28;19912;-68
2021/07/12 09:00:51;;;;;;;;;;;13.40;99.90;;;;;;5070233;28;19919;-68
2021/07/12 09:03:25;;;;;;;;;;;13.40;99.90;;;;;;5069565;28;20263;-68
2021/07/12 09:05:56;;;;;;;;;;;13.40;99.90;;;;;;5070784;28;19908;-68
2021/07/12 09:09:02;;;;;;;;;;;13.40;99.90;;;;;;5072067;28;19924;-68
2021/07/12 09:11:40;;;;;;;;;;;13.40;99.90;;;;;;5049695;28;19909;-68
2021/07/12 09:14:17;;;;;;;;;;;13.30;99.90;;;;;;5068987;28;19912;-68
2021/07/12 09:16:56;;;;;;;;;;;13.30;99.90;;;;;;5072141;28;19950;-67
2021/07/12 09:19:28;;;;;;;;;;;13.30;99.90;;;;;;5071521;28;19909;-67
2021/07/12 09:21:59;;;;;;;;;;;13.30;99.90;;;;;;5071724;28;19909;-68
2021/07/12 09:24:25;;;;;;;;;;;13.30;99.90;;;;;;5071704;28;20000;-67
2021/07/12 09:26:57;;;;;;;;;;;13.30;99.90;;;;;;5072000;28;19909;-68
2021/07/12 09:29:25;;;;;;;;;;;13.30;99.90;;;;;;5072079;28;19924;-67
2021/07/12 09:31:53;;;;;;;;;;;13.30;99.90;;;;;;5071782;28;19909;-68
2021/07/12 09:34:20;;;;;;;;;;;13.40;99.90;;;;;;5069796;28;19916;-68
2021/07/12 09:36:47;;;;;;;;;;;13.30;99.90;;;;;;5071810;28;19916;-67
2021/07/12 09:39:32;;;;;;;;;;;13.30;99.90;;;;;;5071777;28;19908;-68
2021/07/12 09:42:00;;;;;;;;;;;13.20;99.90;;;;;;5071455;28;19908;-67
2021/07/12 09:44:28;;;;;;;;;;;13.20;99.90;;;;;;5071919;28;20217;-68
2021/07/12 09:47:03;;;;;;;;;;;13.10;99.90;;;;;;5075007;28;19999;-68
2021/07/12 09:49:30;;;;;;;;;;;13.10;99.90;;;;;;5074862;28;19917;-68
2021/07/12 09:51:57;;;;;;;;;;;13.10;99.90;;;;;;5075344;28;20339;-68
2021/07/12 09:54:33;;;;;;;;;;;13.00;99.90;;;;;;5074914;28;20374;-67
2021/07/12 09:57:05;;;;;;;;;;;13.10;99.90;;;;;;5075174;28;19915;-68
2021/07/12 09:59:32;;;;;;;;;;;13.10;99.90;;;;;;5075004;28;19915;-68
2021/07/12 10:01:59;;;;;;;;;;;13.00;99.90;;;;;;5079114;28;19920;-68
2021/07/12 10:04:26;;;;;;;;;;;13.10;99.90;;;;;;5077693;28;19919;-68
2021/07/12 10:06:53;;;;;;;;;;;13.10;99.90;;;;;;5072970;28;20290;-68
2021/07/12 10:09:23;;;;;;;;;;;13.10;99.90;;;;;;5074034;28;19939;-68
2021/07/12 10:11:51;;;;;;;;;;;13.10;99.90;;;;;;5074700;28;20243;-68
2021/07/12 10:14:18;;;;;;;;;;;13.10;99.90;;;;;;5082687;28;19912;-68
2021/07/12 10:16:45;;;;;;;;;;;13.10;99.90;;;;;;5089934;28;20242;-68
2021/07/12 10:19:16;;;;;;;;;;;13.00;99.90;;;;;;5094227;28;19957;-68
2021/07/12 10:21:46;;;;;;;;;;;13.00;99.90;;;;;;5092517;28;19908;-69
2021/07/12 10:24:13;;;;;;;;;;;13.00;99.90;;;;;;5092697;28;19912;-68
2021/07/12 10:26:49;;;;;;;;;;;13.00;99.90;;;;;;5090361;28;19920;-68
2021/07/12 10:29:17;;;;;;;;;;;13.00;99.90;;;;;;5092567;28;19923;-68
2021/07/12 10:32:03;;;;;;;;;;;13.00;99.90;;;;;;5092551;28;19912;-68
2021/07/12 10:34:35;;;;;;;;;;;13.00;99.90;;;;;;5090543;28;19935;-68
2021/07/12 10:37:06;;;;;;;;;;;12.90;99.90;;;;;;5092628;28;19919;-67
2021/07/12 10:39:51;;;;;;;;;;;12.90;99.90;;;;;;5091722;28;19908;-67
2021/07/12 10:42:36;;;;;;;;;;;12.90;99.90;;;;;;5095822;28;19908;-68
2021/07/12 10:45:12;;;;;;;;;;;12.80;99.90;;;;;;5114158;28;19947;-67
2021/07/12 10:47:45;;;;;;;;;;;12.90;99.90;;;;;;5111801;28;19969;-67
2021/07/12 10:50:30;;;;;;;;;;;12.80;99.90;;;;;;5112858;28;19962;-68
2021/07/12 10:52:56;;;;;;;;;;;12.80;99.90;;;;;;5112594;28;19916;-68
2021/07/12 10:55:30;;;;;;;;;;;12.70;99.90;;;;;;5110135;28;19916;-68
2021/07/12 10:58:15;;;;;;;;;;;12.60;99.90;;;;;;5111388;28;20018;-68
2021/07/12 11:00:41;;;;;;;;;;;12.60;99.90;;;;;;5093825;28;19907;-68
2021/07/12 11:03:28;;;;;;;;;;;12.60;99.90;;;;;;5112504;28;19912;-68
2021/07/12 11:05:55;;;;;;;;;;;12.60;99.90;;;;;;5101288;28;19939;-67
2021/07/12 11:08:39;;;;;;;;;;;12.50;99.90;;;;;;5112168;28;19966;-67
2021/07/12 11:11:10;;;;;;;;;;;12.50;99.90;;;;;;5109473;28;19911;-67
2021/07/12 11:13:58;;;;;;;;;;;12.50;99.90;;;;;;5111754;28;19915;-68
2021/07/12 11:16:26;;;;;;;;;;;12.50;99.90;;;;;;5112162;28;20347;-68
2021/07/12 11:18:53;;;;;;;;;;;12.60;99.90;;;;;;5112370;28;19953;-68
2021/07/12 11:21:30;;;;;;;;;;;12.60;99.90;;;;;;5112010;28;20015;-69
2021/07/12 11:24:20;;;;;;;;;;;12.70;99.90;;;;;;5088603;28;19923;-68
2021/07/12 11:26:48;;;;;;;;;;;12.70;99.90;;;;;;5111497;28;19916;-68
2021/07/12 11:29:22;;;;;;;;;;;12.80;99.90;;;;;;5111931;28;19919;-68
2021/07/12 11:32:06;;;;;;;;;;;12.80;99.90;;;;;;5111701;28;19908;-68
2021/07/12 11:34:53;;;;;;;;;;;12.80;99.90;;;;;;5111811;28;19956;-68
2021/07/12 11:37:21;;;;;;;;;;;12.90;99.90;;;;;;5111538;28;19915;-68
2021/07/12 11:39:53;;;;;;;;;;;12.90;99.90;;;;;;5108573;28;20377;-67
2021/07/12 11:42:25;;;;;;;;;;;12.80;99.90;;;;;;5111501;28;19912;-67
2021/07/12 11:45:07;;;;;;;;;;;12.80;99.90;;;;;;5110800;28;20358;-67
2021/07/12 11:47:33;;;;;;;;;;;12.70;99.90;;;;;;5111058;28;20466;-68
2021/07/12 11:50:02;;;;;;;;;;;12.60;99.90;;;;;;5111499;28;20337;-68
2021/07/12 11:52:30;;;;;;;;;;;12.50;99.90;;;;;;5092781;28;19933;-67
2021/07/12 11:55:16;;;;;;;;;;;12.50;99.90;;;;;;5111105;28;20278;-68
2021/07/12 11:57:46;;;;;;;;;;;12.50;99.90;;;;;;5110732;28;19908;-69
2021/07/12 12:00:19;;;;;;;;;;;12.40;99.90;;;;;;5110981;28;20374;-67
2021/07/12 12:02:46;;;;;;;;;;;12.40;99.90;;;;;;5111155;28;19957;-68
2021/07/12 12:05:14;;;;;;;;;;;12.30;99.90;;;;;;5110913;28;19911;-68
2021/07/12 12:07:45;;;;;;;;;;;12.30;99.90;;;;;;5110659;28;19916;-68
2021/07/12 12:10:23;;;;;;;;;;;12.30;99.90;;;;;;5111168;28;20093;-67
2021/07/12 12:12:56;;;;;;;;;;;12.30;99.90;;;;;;5111284;28;19914;-68
2021/07/12 12:15:29;;;;;;;;;;;12.20;99.90;;;;;;5111449;28;19908;-69
2021/07/12 12:18:09;;;;;;;;;;;12.20;99.90;;;;;;5111186;28;19919;-68
2021/07/12 12:20:40;;;;;;;;;;;12.20;99.90;;;;;;5111175;28;19916;-68
2021/07/12 12:23:07;;;;;;;;;;;12.20;99.90;;;;;;5110823;28;19911;-68
2021/07/12 12:25:42;;;;;;;;;;;12.20;99.90;;;;;;5110964;28;20381;-68
2021/07/12 12:28:09;;;;;;;;;;;12.20;99.90;;;;;;5110911;28;19916;-67
2021/07/12 12:30:36;;;;;;;;;;;12.20;99.90;;;;;;5110815;28;19915;-67
2021/07/12 12:33:03;;;;;;;;;;;12.20;99.90;;;;;;5110342;28;19912;-68
2021/07/12 12:35:30;;;;;;;;;;;12.20;99.90;;;;;;5110897;28;19914;-69
2021/07/12 12:38:11;;;;;;;;;;;12.20;99.90;;;;;;5092697;28;19969;-68
2021/07/12 12:40:37;;;;;;;;;;;12.20;99.90;;;;;;5110819;28;19908;-68
2021/07/12 12:43:12;;;;;;;;;;;12.20;99.90;;;;;;5110651;28;19912;-68
2021/07/12 12:45:45;;;;;;;;;;;12.30;99.90;;;;;;5110252;28;19908;-68
2021/07/12 12:48:12;;;;;;;;;;;12.20;99.90;;;;;;5110532;28;19924;-68
2021/07/12 12:50:39;;;;;;;;;;;12.20;99.90;;;;;;5110711;28;19953;-68
2021/07/12 12:53:09;;;;;;;;;;;12.30;99.90;;;;;;5110351;28;19917;-69
2021/07/12 12:55:37;;;;;;;;;;;12.30;99.90;;;;;;5110341;28;20002;-68
2021/07/12 12:58:08;;;;;;;;;;;12.30;99.90;;;;;;5110276;28;19996;-68
2021/07/12 13:00:35;;;;;;;;;;;12.20;99.90;;;;;;5110708;28;19908;-68
2021/07/12 13:03:02;;;;;;;;;;;12.30;99.90;;;;;;5110753;28;19961;-68
2021/07/12 13:05:29;;;;;;;;;;;12.40;99.90;;;;;;5110945;28;19979;-68
2021/07/12 13:07:56;;;;;;;;;;;12.40;99.90;;;;;;5110503;28;19916;-68
2021/07/12 13:10:25;;;;;;;;;;;12.40;99.90;;;;;;5091994;28;20003;-68
2021/07/12 13:13:19;;;;;;;;;;;12.50;99.90;;;;;;5110594;28;19919;-68
2021/07/12 13:15:45;;;;;;;;;;;12.40;99.90;;;;;;5082865;28;19908;-68
2021/07/12 13:18:12;;;;;;;;;;;12.40;99.90;;;;;;5069961;28;19908;-67
2021/07/12 13:20:45;;;;;;;;;;;12.40;99.90;;;;;;5071144;28;20405;-67
2021/07/12 13:23:13;;;;;;;;;;;12.40;99.90;;;;;;5073299;28;19940;-68
2021/07/12 13:25:42;;;;;;;;;;;12.30;99.90;;;;;;5073220;28;19917;-67
2021/07/12 13:28:10;;;;;;;;;;;12.30;99.90;;;;;;5073162;28;19919;-68
2021/07/12 13:30:41;;;;;;;;;;;12.40;99.90;;;;;;5071924;28;20424;-68
2021/07/12 13:33:08;;;;;;;;;;;12.40;99.90;;;;;;5073194;28;19917;-67
2021/07/12 13:35:35;;;;;;;;;;;12.40;99.90;;;;;;5073479;28;19909;-67
2021/07/12 13:38:04;;;;;;;;;;;12.30;99.90;;;;;;5073556;28;19982;-67
2021/07/12 13:40:31;;;;;;;;;;;12.40;99.90;;;;;;5073249;28;19927;-67
2021/07/12 13:42:58;;;;;;;;;;;12.40;99.90;;;;;;5073209;28;19917;-68
2021/07/12 13:45:25;;;;;;;;;;;12.40;99.90;;;;;;5073475;28;19966;-67
2021/07/12 13:47:53;;;;;;;;;;;12.40;99.90;;;;;;5072766;28;19916;-67
2021/07/12 13:50:22;;;;;;;;;;;12.40;99.90;;;;;;5073245;28;19912;-68
2021/07/12 13:52:49;;;;;;;;;;;12.50;99.90;;;;;;5073378;28;19953;-68
2021/07/12 13:55:17;;;;;;;;;;;12.50;99.90;;;;;;5073103;28;19916;-68
2021/07/12 13:57:45;;;;;;;;;;;12.50;99.90;;;;;;5073064;28;20356;-68
2021/07/12 14:00:14;;;;;;;;;;;12.50;99.90;;;;;;5072965;28;19908;-68
2021/07/12 14:02:41;;;;;;;;;;;12.40;99.90;;;;;;5072832;28;20318;-66
2021/07/12 14:05:10;;;;;;;;;;;12.40;99.90;;;;;;5072967;28;19912;-68
2021/07/12 14:07:37;;;;;;;;;;;12.40;99.90;;;;;;5072419;28;19912;-67
2021/07/12 14:10:04;;;;;;;;;;;12.40;99.90;;;;;;5072807;28;20313;-66
2021/07/12 14:12:32;;;;;;;;;;;12.30;99.90;;;;;;5072790;28;20355;-67
2021/07/12 14:14:58;;;;;;;;;;;12.30;99.90;;;;;;5072783;28;19919;-66
2021/07/12 14:17:25;;;;;;;;;;;12.30;99.90;;;;;;5072571;28;19954;-67
2021/07/12 14:19:51;;;;;;;;;;;12.30;99.90;;;;;;5071953;28;19908;-67
2021/07/12 14:22:18;;;;;;;;;;;12.30;99.90;;;;;;5072560;28;19995;-67
2021/07/12 14:24:45;;;;;;;;;;;12.30;99.90;;;;;;5072401;28;19908;-67
2021/07/12 14:27:11;;;;;;;;;;;12.30;99.90;;;;;;5072556;28;19966;-66
2021/07/12 14:29:38;;;;;;;;;;;12.30;99.90;;;;;;5071964;28;19912;-67